createdAt,value
2018-12-21T00:00:09.476Z,-4.6
2018-12-21T00:00:59.811Z,-4.6
2018-12-21T00:01:49.319Z,-4.6
2018-12-21T00:32:31.434Z,-4.6
2018-12-21T00:33:22.083Z,-4.6
2018-12-21T00:34:11.537Z,-4.6
2018-12-21T00:35:01.587Z,-4.6
2018-12-21T00:35:51.659Z,-4.6
2018-12-21T00:36:41.417Z,-4.6
2018-12-21T00:37:32.017Z,-4.6
2018-12-21T00:38:21.814Z,-4.6
2018-12-21T00:39:12.147Z,-4.6
2018-12-21T00:40:01.909Z,-4.6
2018-12-21T00:40:52.254Z,-4.6
2018-12-21T00:41:42.032Z,-4.6
2018-12-21T00:42:32.084Z,-4.6
2018-12-21T00:43:22.186Z,-4.6
2018-12-21T00:44:12.476Z,-4.6
2018-12-21T00:45:01.974Z,-4.6
2018-12-21T00:45:52.302Z,-4.6
2018-12-21T00:46:42.366Z,-4.6
2018-12-21T00:47:32.709Z,-4.6
2018-12-21T00:48:22.724Z,-4.6
2018-12-21T00:49:12.532Z,-4.6
2018-12-21T00:50:02.876Z,-4.6
2018-12-21T00:50:52.926Z,-4.6
2018-12-21T00:51:42.971Z,-4.6
2018-12-21T00:52:33.036Z,-4.6
2018-12-21T00:53:23.181Z,-4.6
2018-12-21T00:54:12.879Z,-4.6
2018-12-21T00:55:02.946Z,-4.6
2018-12-21T00:55:52.166Z,-4.6
2018-12-21T00:56:43.050Z,-4.6
2018-12-21T00:57:33.389Z,-4.6
2018-12-21T00:58:23.447Z,-4.6
2018-12-21T00:59:13.503Z,-4.6
2018-12-21T01:00:03.296Z,-4.6
2018-12-21T01:00:53.608Z,-4.6
2018-12-21T01:01:43.665Z,-4.7
2018-12-21T01:02:33.441Z,-4.6
2018-12-21T01:03:23.819Z,-4.6
2018-12-21T01:04:13.298Z,-4.6
2018-12-21T01:05:03.372Z,-4.6
2018-12-21T01:05:53.405Z,-4.6
2018-12-21T01:06:43.722Z,-4.6
2018-12-21T01:07:33.792Z,-4.6
2018-12-21T01:08:24.115Z,-4.6
2018-12-21T01:09:13.900Z,-4.6
2018-12-21T01:10:04.262Z,-4.6
2018-12-21T01:10:54.284Z,-4.7
2018-12-21T01:11:44.082Z,-4.6
2018-12-21T01:12:34.212Z,-4.7
2018-12-21T01:13:24.453Z,-4.7
2018-12-21T01:14:14.046Z,-4.7
2018-12-21T01:15:04.035Z,-4.7
2018-12-21T01:15:53.594Z,-4.7
2018-12-21T01:16:44.219Z,-4.7
2018-12-21T01:17:34.269Z,-4.7
2018-12-21T01:18:24.139Z,-4.7
2018-12-21T01:19:14.215Z,-4.7
2018-12-21T01:20:03.909Z,-4.7
2018-12-21T01:20:54.486Z,-4.7
2018-12-21T01:21:44.544Z,-4.7
2018-12-21T01:22:34.601Z,-4.7
2018-12-21T01:23:24.667Z,-4.8
2018-12-21T01:24:14.715Z,-4.8
2018-12-21T01:25:04.478Z,-4.7
2018-12-21T01:25:55.316Z,-4.7
2018-12-21T01:26:44.886Z,-4.8
2018-12-21T01:27:35.435Z,-4.8
2018-12-21T01:28:25.211Z,-4.7
2018-12-21T01:29:14.956Z,-4.7
2018-12-21T01:30:05.603Z,-4.7
2018-12-21T01:30:55.658Z,-4.7
2018-12-21T01:31:45.736Z,-4.8
2018-12-21T01:32:35.221Z,-4.8
2018-12-21T01:33:25.553Z,-4.8
2018-12-21T01:34:15.889Z,-4.7
2018-12-21T01:35:05.957Z,-4.8
2018-12-21T01:35:55.989Z,-4.8
2018-12-21T01:36:46.061Z,-4.8
2018-12-21T01:37:36.222Z,-4.8
2018-12-21T01:38:25.878Z,-4.8
2018-12-21T01:39:16.241Z,-4.8
2018-12-21T01:40:06.028Z,-4.8
2018-12-21T01:40:56.054Z,-4.8
2018-12-21T01:41:46.110Z,-4.8
2018-12-21T01:42:36.465Z,-4.8
2018-12-21T01:43:26.233Z,-4.8
2018-12-21T01:44:16.538Z,-4.8
2018-12-21T01:45:06.870Z,-4.8
2018-12-21T01:45:56.410Z,-4.8
2018-12-21T01:46:46.175Z,-4.8
2018-12-21T01:47:36.535Z,-4.8
2018-12-21T01:48:26.580Z,-4.8
2018-12-21T01:49:16.898Z,-4.8
2018-12-21T01:50:07.006Z,-4.8
2018-12-21T01:50:57.023Z,-4.8
2018-12-21T01:51:49.549Z,-4.8
2018-12-21T01:52:36.850Z,-4.8
2018-12-21T01:53:27.180Z,-4.8
2018-12-21T01:54:17.605Z,-4.8
2018-12-21T01:55:07.387Z,-4.8
2018-12-21T01:55:57.081Z,-4.8
2018-12-21T01:56:47.409Z,-4.8
2018-12-21T01:57:37.572Z,-4.8
2018-12-21T01:58:27.255Z,-4.8
2018-12-21T01:59:17.590Z,-4.8
2018-12-21T02:00:07.645Z,-4.8
2018-12-21T02:00:57.712Z,-4.8
2018-12-21T02:01:47.745Z,-4.8
2018-12-21T02:02:37.526Z,-4.8
2018-12-21T02:03:27.305Z,-4.8
2018-12-21T02:04:17.931Z,-4.8
2018-12-21T02:05:07.992Z,-4.8
2018-12-21T02:05:58.020Z,-4.8
2018-12-21T02:06:48.148Z,-4.8
2018-12-21T02:07:38.157Z,-4.8
2018-12-21T02:08:28.210Z,-4.8
2018-12-21T02:09:17.987Z,-4.8
2018-12-21T02:10:08.329Z,-4.8
2018-12-21T02:10:58.165Z,-4.8
2018-12-21T02:11:48.160Z,-4.8
2018-12-21T02:12:38.217Z,-4.8
2018-12-21T02:13:28.574Z,-4.8
2018-12-21T02:14:18.599Z,-4.8
2018-12-21T02:15:08.119Z,-4.8
2018-12-21T02:15:58.972Z,-4.8
2018-12-21T02:16:48.229Z,-4.8
2018-12-21T02:17:38.555Z,-4.8
2018-12-21T02:18:28.614Z,-4.8
2018-12-21T02:19:18.944Z,-4.8
2018-12-21T02:20:08.722Z,-4.8
2018-12-21T02:20:59.311Z,-4.8
2018-12-21T02:21:57.726Z,-4.8
2018-12-21T02:22:38.902Z,-4.8
2018-12-21T02:23:28.969Z,-4.8
2018-12-21T02:24:19.274Z,-4.8
2018-12-21T02:25:09.056Z,-4.8
2018-12-21T02:25:58.821Z,-4.8
2018-12-21T02:26:49.507Z,-4.8
2018-12-21T02:27:39.519Z,-4.8
2018-12-21T02:28:29.566Z,-4.9
2018-12-21T02:29:19.679Z,-4.9
2018-12-21T02:30:09.709Z,-4.8
2018-12-21T02:30:59.756Z,-4.8
2018-12-21T02:31:49.664Z,-4.8
2018-12-21T02:32:39.321Z,-4.8
2018-12-21T02:33:29.809Z,-4.9
2018-12-21T02:34:19.701Z,-4.8
2018-12-21T02:35:09.747Z,-4.9
2018-12-21T02:35:59.818Z,-4.9
2018-12-21T02:36:50.185Z,-4.9
2018-12-21T02:37:40.185Z,-4.9
2018-12-21T02:38:30.273Z,-4.9
2018-12-21T02:39:20.423Z,-4.9
2018-12-21T02:40:09.826Z,-4.9
2018-12-21T02:41:00.478Z,-4.9
2018-12-21T02:41:50.734Z,-4.9
2018-12-21T02:42:40.533Z,-4.9
2018-12-21T02:43:30.735Z,-4.9
2018-12-21T02:44:19.821Z,-4.9
2018-12-21T02:45:10.721Z,-4.9
2018-12-21T02:46:00.819Z,-4.9
2018-12-21T02:46:50.547Z,-4.9
2018-12-21T02:47:40.596Z,-4.9
2018-12-21T02:48:31.181Z,-4.9
2018-12-21T02:49:20.191Z,-4.9
2018-12-21T02:50:10.889Z,-4.9
2018-12-21T02:51:00.860Z,-4.9
2018-12-21T02:51:51.580Z,-4.9
2018-12-21T02:52:40.933Z,-4.9
2018-12-21T02:53:30.728Z,-4.9
2018-12-21T02:54:21.115Z,-4.9
2018-12-21T02:55:11.422Z,-4.9
2018-12-21T02:56:01.183Z,-4.9
2018-12-21T02:56:51.468Z,-4.9
2018-12-21T02:57:41.306Z,-4.9
2018-12-21T02:58:31.649Z,-4.9
2018-12-21T02:59:21.423Z,-4.9
2018-12-21T03:00:11.453Z,-4.9
2018-12-21T03:01:01.675Z,-4.9
2018-12-21T03:01:51.859Z,-4.9
2018-12-21T03:02:41.634Z,-4.9
2018-12-21T03:03:31.391Z,-4.9
2018-12-21T03:04:22.030Z,-4.9
2018-12-21T03:05:12.377Z,-4.9
2018-12-21T03:06:01.712Z,-4.9
2018-12-21T03:06:52.192Z,-4.9
2018-12-21T03:07:42.249Z,-4.9
2018-12-21T03:08:31.740Z,-4.9
2018-12-21T03:09:22.364Z,-4.9
2018-12-21T03:10:12.461Z,-4.9
2018-12-21T03:11:02.564Z,-4.9
2018-12-21T03:11:52.525Z,-4.9
2018-12-21T03:12:42.598Z,-4.9
2018-12-21T03:13:32.640Z,-4.9
2018-12-21T03:14:22.937Z,-4.9
2018-12-21T03:15:12.719Z,-4.9
2018-12-21T03:16:02.928Z,-4.9
2018-12-21T03:16:52.863Z,-4.9
2018-12-21T03:17:42.943Z,-4.9
2018-12-21T03:18:32.969Z,-4.9
2018-12-21T03:19:22.771Z,-4.9
2018-12-21T03:20:13.091Z,-4.9
2018-12-21T03:21:03.271Z,-4.9
2018-12-21T03:21:52.661Z,-4.9
2018-12-21T03:22:43.388Z,-4.9
2018-12-21T03:23:33.635Z,-4.8
2018-12-21T03:24:22.558Z,-4.8
2018-12-21T03:25:13.220Z,-4.9
2018-12-21T03:26:03.597Z,-4.8
2018-12-21T03:26:53.554Z,-4.8
2018-12-21T03:27:43.597Z,-4.8
2018-12-21T03:28:33.951Z,-4.8
2018-12-21T03:29:23.723Z,-4.8
2018-12-21T03:30:13.776Z,-4.8
2018-12-21T03:31:03.765Z,-4.8
2018-12-21T03:31:53.639Z,-4.8
2018-12-21T03:32:43.447Z,-4.8
2018-12-21T03:33:33.722Z,-4.8
2018-12-21T03:34:24.112Z,-4.8
2018-12-21T03:35:13.867Z,-4.8
2018-12-21T03:36:04.263Z,-4.8
2018-12-21T03:36:54.229Z,-4.8
2018-12-21T03:37:44.422Z,-4.8
2018-12-21T03:38:34.640Z,-4.8
2018-12-21T03:39:24.711Z,-4.8
2018-12-21T03:40:14.765Z,-4.8
2018-12-21T03:41:04.509Z,-4.8
2018-12-21T03:41:54.572Z,-4.8
2018-12-21T03:42:44.622Z,-4.8
2018-12-21T03:43:34.667Z,-4.8
2018-12-21T03:44:24.459Z,-4.8
2018-12-21T03:45:14.500Z,-4.8
2018-12-21T03:46:04.847Z,-4.8
2018-12-21T03:46:54.901Z,-4.8
2018-12-21T03:47:44.686Z,-4.8
2018-12-21T03:48:35.029Z,-4.8
2018-12-21T03:49:25.086Z,-4.8
2018-12-21T03:50:14.594Z,-4.8
2018-12-21T03:51:05.177Z,-4.8
2018-12-21T03:51:55.000Z,-4.8
2018-12-21T03:52:45.089Z,-4.8
2018-12-21T03:53:35.089Z,-4.8
2018-12-21T03:54:25.138Z,-4.8
2018-12-21T03:55:15.660Z,-4.8
2018-12-21T03:56:05.509Z,-4.8
2018-12-21T03:56:55.018Z,-4.8
2018-12-21T03:57:45.102Z,-4.8
2018-12-21T03:58:35.178Z,-4.8
2018-12-21T03:59:26.012Z,-4.8
2018-12-21T04:00:15.954Z,-4.8
2018-12-21T04:01:05.611Z,-4.8
2018-12-21T04:01:55.984Z,-4.8
2018-12-21T04:02:46.007Z,-4.8
2018-12-21T04:03:35.765Z,-4.8
2018-12-21T04:04:26.099Z,-4.8
2018-12-21T04:05:15.871Z,-4.8
2018-12-21T04:06:06.210Z,-4.8
2018-12-21T04:06:56.297Z,-4.8
2018-12-21T04:07:45.771Z,-4.8
2018-12-21T04:08:35.932Z,-4.8
2018-12-21T04:09:25.897Z,-4.8
2018-12-21T04:10:16.244Z,-4.8
2018-12-21T04:11:06.082Z,-4.8
2018-12-21T04:11:56.335Z,-4.8
2018-12-21T04:12:46.098Z,-4.8
2018-12-21T04:13:36.458Z,-4.8
2018-12-21T04:14:26.780Z,-4.8
2018-12-21T04:15:16.820Z,-4.8
2018-12-21T04:16:06.659Z,-4.8
2018-12-21T04:16:56.988Z,-4.8
2018-12-21T04:17:47.145Z,-4.8
2018-12-21T04:18:37.104Z,-4.8
2018-12-21T04:19:27.145Z,-4.8
2018-12-21T04:20:16.643Z,-4.8
2018-12-21T04:21:07.000Z,-4.8
2018-12-21T04:21:57.005Z,-4.8
2018-12-21T04:22:47.069Z,-4.8
2018-12-21T04:23:37.129Z,-4.8
2018-12-21T04:24:27.705Z,-4.8
2018-12-21T04:25:17.867Z,-4.8
2018-12-21T04:26:07.318Z,-4.7
2018-12-21T04:26:57.865Z,-4.7
2018-12-21T04:27:47.704Z,-4.7
2018-12-21T04:28:36.904Z,-4.7
2018-12-21T04:29:27.537Z,-4.7
2018-12-21T04:30:18.180Z,-4.8
2018-12-21T04:31:07.358Z,-4.7
2018-12-21T04:31:58.027Z,-4.7
2018-12-21T04:32:48.056Z,-4.7
2018-12-21T04:33:38.077Z,-4.7
2018-12-21T04:34:28.156Z,-4.7
2018-12-21T04:35:17.932Z,-4.7
2018-12-21T04:36:08.274Z,-4.7
2018-12-21T04:36:58.281Z,-4.7
2018-12-21T04:37:48.354Z,-4.7
2018-12-21T04:38:38.180Z,-4.7
2018-12-21T04:39:27.964Z,-4.7
2018-12-21T04:40:18.344Z,-4.7
2018-12-21T04:41:08.308Z,-4.7
2018-12-21T04:41:58.644Z,-4.6
2018-12-21T04:42:48.433Z,-4.6
2018-12-21T04:43:38.211Z,-4.6
2018-12-21T04:44:28.554Z,-4.6
2018-12-21T05:01:49.360Z,-4.6
2018-12-21T05:02:53.340Z,-4.6
2018-12-21T05:03:43.527Z,-4.6
2018-12-21T05:04:25.462Z,-4.6
2018-12-21T05:05:15.444Z,-4.6
2018-12-21T05:06:06.453Z,-4.6
2018-12-21T05:06:56.614Z,-4.6
2018-12-21T05:07:45.946Z,-4.6
2018-12-21T05:08:36.256Z,-4.6
2018-12-21T09:16:16.801Z,5.2
2018-12-21T09:17:06.122Z,5.4
2018-12-21T09:17:56.181Z,5.5
2018-12-21T09:18:46.499Z,5.6
2018-12-21T09:19:36.279Z,5.8
2018-12-21T09:20:25.803Z,5.8
2018-12-21T09:21:17.297Z,5.9
2018-12-21T09:22:06.751Z,6.1
2018-12-21T09:22:56.221Z,6.1
2018-12-21T09:23:46.823Z,6.2
2018-12-21T09:24:36.893Z,6.3
2018-12-21T09:25:26.941Z,6.4
2018-12-21T09:26:17.002Z,6.4
2018-12-21T09:27:07.063Z,6.5
2018-12-21T09:27:56.836Z,6.6
2018-12-21T09:28:46.893Z,6.7
2018-12-21T09:29:36.950Z,6.8
2018-12-21T09:30:27.278Z,6.9
2018-12-21T09:31:17.342Z,7.1
2018-12-21T09:32:07.680Z,7.3
2018-12-21T09:32:56.893Z,7.5
2018-12-21T09:33:47.507Z,7.6
2018-12-21T09:34:37.568Z,7.9
2018-12-21T09:35:27.350Z,8.1
2018-12-21T09:36:17.408Z,8.3
2018-12-21T09:37:07.985Z,8.6
2018-12-21T09:37:57.517Z,8.8
2018-12-21T09:38:47.855Z,9.1
2018-12-21T09:39:37.616Z,9.3
2018-12-21T09:40:27.952Z,9.6
2018-12-21T09:41:18.012Z,9.8
2018-12-21T09:42:08.057Z,10.1
2018-12-21T09:42:57.577Z,10.3
2018-12-21T09:43:48.181Z,10.5
2018-12-21T09:44:37.961Z,10.7
2018-12-21T09:45:28.019Z,10.9
2018-12-21T09:46:18.345Z,11.1
2018-12-21T09:47:08.464Z,11.3
2018-12-21T09:47:58.191Z,11.5
2018-12-21T09:48:48.254Z,11.7
2018-12-21T09:49:38.579Z,11.9
2018-12-21T09:50:28.947Z,12
2018-12-21T09:51:18.411Z,12.1
2018-12-21T09:52:08.752Z,12.3
2018-12-21T09:52:58.276Z,12.3
2018-12-21T09:53:48.592Z,12.4
2018-12-21T09:54:38.914Z,12.4
2018-12-21T09:55:28.994Z,12.5
2018-12-21T09:56:18.476Z,12.5
2018-12-21T09:57:08.854Z,12.5
2018-12-21T09:57:59.199Z,12.4
2018-12-21T09:58:49.198Z,12.4
2018-12-21T09:59:38.693Z,12.4
2018-12-21T10:00:28.763Z,12.4
2018-12-21T10:01:19.096Z,12.3
2018-12-21T10:02:09.413Z,12.3
2018-12-21T10:02:58.933Z,12.3
2018-12-21T10:03:49.258Z,12.3
2018-12-21T10:04:39.328Z,12.2
2018-12-21T10:05:29.645Z,12.1
2018-12-21T10:06:19.788Z,12.1
2018-12-21T10:07:09.760Z,12
2018-12-21T10:07:59.267Z,12
2018-12-21T10:08:50.124Z,11.9
2018-12-21T10:09:39.927Z,11.9
2018-12-21T10:10:29.990Z,11.9
2018-12-21T10:11:19.765Z,11.9
2018-12-21T10:12:09.532Z,11.9
2018-12-21T10:12:59.880Z,11.8
2018-12-21T10:13:50.329Z,11.8
2018-12-21T10:14:40.260Z,11.8
2018-12-21T10:15:30.440Z,11.8
2018-12-21T10:16:20.382Z,11.8
2018-12-21T10:17:10.432Z,11.8
2018-12-21T10:18:01.044Z,11.8
2018-12-21T10:18:50.282Z,11.8
2018-12-21T10:19:40.314Z,11.8
2018-12-21T10:20:30.649Z,11.8
2018-12-21T10:21:20.709Z,11.8
2018-12-21T10:22:10.486Z,11.8
2018-12-21T10:23:01.067Z,11.8
2018-12-21T10:23:50.619Z,11.9
2018-12-21T10:24:40.937Z,11.9
2018-12-21T10:25:30.994Z,12
2018-12-21T10:26:21.165Z,12.1
2018-12-21T10:27:10.829Z,12.2
2018-12-21T10:28:00.623Z,12.3
2018-12-21T10:28:50.934Z,12.4
2018-12-21T10:29:41.274Z,12.6
2018-12-21T10:30:30.609Z,12.8
2018-12-21T10:31:20.826Z,12.9
2018-12-21T10:32:11.421Z,13
2018-12-21T10:33:01.495Z,13.1
2018-12-21T10:33:51.283Z,13.3
2018-12-21T10:34:41.640Z,13.4
2018-12-21T10:35:31.657Z,13.5
2018-12-21T10:36:21.543Z,13.6
2018-12-21T10:37:11.783Z,13.6
2018-12-21T10:38:01.830Z,13.7
2018-12-21T10:38:51.938Z,13.7
2018-12-21T10:39:41.685Z,13.8
2018-12-21T10:40:31.731Z,13.8
2018-12-21T10:41:22.142Z,13.8
2018-12-21T10:42:12.113Z,13.8
2018-12-21T10:43:01.902Z,13.8
2018-12-21T10:43:52.224Z,13.7
2018-12-21T10:44:42.324Z,13.7
2018-12-21T10:45:32.339Z,13.6
2018-12-21T10:46:22.116Z,13.5
2018-12-21T10:47:12.442Z,13.5
2018-12-21T10:48:02.401Z,13.4
2018-12-21T10:48:51.751Z,13.3
2018-12-21T10:49:42.646Z,13.3
2018-12-21T10:50:32.673Z,13.2
2018-12-21T10:51:22.181Z,13.2
2018-12-21T10:52:12.508Z,13.1
2018-12-21T10:53:02.406Z,13
2018-12-21T10:53:52.626Z,12.9
2018-12-21T10:54:42.998Z,12.9
2018-12-21T10:55:33.035Z,12.9
2018-12-21T10:56:22.793Z,12.9
2018-12-21T10:57:13.120Z,12.9
2018-12-21T10:58:02.895Z,12.9
2018-12-21T10:58:53.233Z,13
2018-12-21T10:59:45.790Z,12.9
2018-12-21T11:00:33.342Z,12.9
2018-12-21T11:01:23.418Z,13
2018-12-21T11:02:13.462Z,13.1
2018-12-21T11:03:02.958Z,13.1
2018-12-21T11:03:53.008Z,13.2
2018-12-21T11:04:43.065Z,13.3
2018-12-21T11:05:33.675Z,13.5
2018-12-21T11:06:23.452Z,13.7
2018-12-21T11:07:13.795Z,13.9
2018-12-21T11:08:03.575Z,14.1
2018-12-21T11:08:53.625Z,14.3
2018-12-21T11:09:43.952Z,14.4
2018-12-21T11:10:34.055Z,14.6
2018-12-21T11:11:24.065Z,14.7
2018-12-21T11:12:14.133Z,14.8
2018-12-21T11:13:04.182Z,14.8
2018-12-21T11:13:54.229Z,14.8
2018-12-21T11:14:44.282Z,14.8
2018-12-21T11:15:34.359Z,14.8
2018-12-21T11:16:24.119Z,14.8
2018-12-21T11:17:14.179Z,14.8
2018-12-21T11:18:03.975Z,14.8
2018-12-21T11:18:54.026Z,14.9
2018-12-21T11:19:44.359Z,14.8
2018-12-21T11:20:34.689Z,14.8
2018-12-21T11:21:24.774Z,14.8
2018-12-21T11:22:14.796Z,14.8
2018-12-21T11:23:04.594Z,14.9
2018-12-21T11:23:54.916Z,14.9
2018-12-21T11:24:44.684Z,14.9
2018-12-21T11:25:35.016Z,15
2018-12-21T11:26:25.076Z,15.1
2018-12-21T11:27:15.141Z,15.2
2018-12-21T11:28:04.917Z,15.3
2018-12-21T11:28:54.961Z,15.3
2018-12-21T11:29:45.304Z,15.3
2018-12-21T11:30:35.081Z,15.3
2018-12-21T11:31:25.413Z,15.3
2018-12-21T11:32:14.913Z,15.4
2018-12-21T11:33:05.551Z,15.4
2018-12-21T11:33:55.639Z,15.4
2018-12-21T11:34:45.646Z,15.5
2018-12-21T11:35:35.431Z,15.5
2018-12-21T11:36:25.751Z,15.6
2018-12-21T11:37:15.558Z,15.6
2018-12-21T11:38:05.600Z,15.6
2018-12-21T11:38:55.888Z,15.6
2018-12-21T11:39:45.986Z,15.7
2018-12-21T11:40:36.048Z,15.8
2018-12-21T11:41:26.099Z,15.8
2018-12-21T11:42:16.148Z,15.8
2018-12-21T11:43:06.213Z,15.8
2018-12-21T11:43:55.773Z,15.8
2018-12-21T11:44:46.311Z,15.9
2018-12-21T11:45:36.380Z,15.9
2018-12-21T11:46:26.143Z,16
2018-12-21T11:47:16.485Z,16.1
2018-12-21T11:48:06.266Z,16.1
2018-12-21T11:48:56.918Z,16.2
2018-12-21T11:49:46.383Z,16.3
2018-12-21T11:50:36.705Z,16.3
2018-12-21T11:51:26.220Z,16.3
2018-12-21T11:52:16.817Z,16.3
2018-12-21T11:53:06.600Z,16.3
2018-12-21T11:53:57.182Z,16.3
2018-12-21T11:54:46.750Z,16.3
2018-12-21T11:55:36.774Z,16.3
2018-12-21T11:56:27.111Z,16.3
2018-12-21T11:57:17.155Z,16.3
2018-12-21T11:58:06.942Z,16.3
2018-12-21T11:58:56.994Z,16.3
2018-12-21T11:59:47.692Z,16.2
2018-12-21T12:00:37.561Z,16.2
2018-12-21T12:01:26.652Z,16.2
2018-12-21T12:02:22.389Z,16.1
2018-12-21T12:03:07.005Z,16.1
2018-12-21T12:03:57.609Z,16.1
2018-12-21T12:04:47.674Z,16
2018-12-21T12:05:37.722Z,15.9
2018-12-21T12:06:27.513Z,15.9
2018-12-21T12:07:17.677Z,15.9
2018-12-21T12:08:07.620Z,15.9
2018-12-21T12:09:06.664Z,15.9
2018-12-21T12:09:48.000Z,15.8
2018-12-21T12:10:38.081Z,15.8
2018-12-21T12:11:28.124Z,15.8
2018-12-21T12:12:18.174Z,15.7
2018-12-21T12:13:07.962Z,15.7
2018-12-21T12:13:58.013Z,15.6
2018-12-21T12:14:48.337Z,15.6
2018-12-21T12:15:38.411Z,15.5
2018-12-21T12:16:28.188Z,15.4
2018-12-21T12:17:18.509Z,15.4
2018-12-21T12:18:08.016Z,15.4
2018-12-21T12:18:58.066Z,15.4
2018-12-21T12:19:48.398Z,15.3
2018-12-21T12:20:38.737Z,15.3
2018-12-21T12:21:28.567Z,15.3
2018-12-21T12:22:18.568Z,15.3
2018-12-21T12:23:08.911Z,15.2
2018-12-21T12:23:58.955Z,15.2
2018-12-21T12:24:57.668Z,15.2
2018-12-21T12:25:38.803Z,15.2
2018-12-21T12:26:29.100Z,15.1
2018-12-21T12:27:19.018Z,15.1
2018-12-21T12:28:09.237Z,15.1
2018-12-21T12:28:58.752Z,15.1
2018-12-21T12:29:49.076Z,14.9
2018-12-21T12:30:39.415Z,14.9
2018-12-21T12:31:29.192Z,14.9
2018-12-21T12:32:19.527Z,14.8
2018-12-21T12:33:09.580Z,14.7
2018-12-21T12:33:59.463Z,14.7
2018-12-21T12:34:49.688Z,14.6
2018-12-21T12:35:39.749Z,14.6
2018-12-21T12:36:29.634Z,14.4
2018-12-21T12:37:19.575Z,14.3
2018-12-21T12:38:10.174Z,14.3
2018-12-21T12:38:59.975Z,14.2
2018-12-21T12:39:50.034Z,14.1
2018-12-21T12:40:40.084Z,14.1
2018-12-21T12:41:30.146Z,13.9
2018-12-21T12:42:20.198Z,13.9
2018-12-21T12:43:10.514Z,13.8
2018-12-21T12:43:59.755Z,13.7
2018-12-21T12:44:50.099Z,13.6
2018-12-21T12:45:40.154Z,13.6
2018-12-21T12:46:30.196Z,13.5
2018-12-21T12:47:20.232Z,13.4
2018-12-21T12:48:10.439Z,13.4
2018-12-21T12:49:00.100Z,13.3
2018-12-21T12:49:50.699Z,13.3
2018-12-21T12:50:40.759Z,13.1
2018-12-21T12:51:30.556Z,13.1
2018-12-21T12:52:21.184Z,13
2018-12-21T12:53:10.661Z,12.9
2018-12-21T12:54:01.233Z,12.8
2018-12-21T12:54:51.047Z,12.7
2018-12-21T12:55:40.831Z,12.6
2018-12-21T12:56:31.234Z,12.5
2018-12-21T12:57:20.944Z,12.4
2018-12-21T12:58:10.996Z,12.4
2018-12-21T12:59:01.327Z,12.2
2018-12-21T12:59:51.121Z,12.1
2018-12-21T13:00:41.513Z,11.9
2018-12-21T13:01:31.506Z,11.8
2018-12-21T13:02:21.552Z,11.8
2018-12-21T13:03:11.113Z,11.7
2018-12-21T13:04:01.673Z,11.6
2018-12-21T13:04:51.968Z,11.5
2018-12-21T13:05:41.498Z,11.4
2018-12-21T13:06:31.833Z,11.3
2018-12-21T13:07:21.615Z,11.2
2018-12-21T13:08:11.400Z,11.1
2018-12-21T13:09:01.715Z,11.1
2018-12-21T13:09:52.300Z,10.9
2018-12-21T13:10:42.115Z,10.9
2018-12-21T13:11:31.390Z,10.8
2018-12-21T13:12:22.233Z,10.8
2018-12-21T13:13:12.288Z,10.7
2018-12-21T13:14:02.068Z,10.6
2018-12-21T13:14:51.836Z,10.5
2018-12-21T13:15:42.461Z,10.4
2018-12-21T13:16:32.672Z,10.3
2018-12-21T13:17:22.290Z,10.3
2018-12-21T13:18:12.347Z,10.2
2018-12-21T13:19:02.727Z,10.1
2018-12-21T13:19:52.469Z,10
2018-12-21T13:20:42.785Z,9.9
2018-12-21T13:21:32.557Z,9.8
2018-12-21T13:22:22.623Z,9.8
2018-12-21T13:23:12.961Z,9.7
2018-12-21T13:24:03.009Z,9.6
2018-12-21T13:24:53.097Z,9.6
2018-12-21T13:25:43.120Z,9.5
2018-12-21T13:26:33.185Z,9.4
2018-12-21T13:27:23.352Z,9.4
2018-12-21T13:28:13.012Z,9.3
2018-12-21T13:29:03.035Z,9.3
2018-12-21T13:29:53.414Z,9.1
2018-12-21T13:30:43.202Z,9.1
2018-12-21T13:31:33.248Z,9
2018-12-21T13:32:23.578Z,8.9
2018-12-21T13:33:13.375Z,8.9
2018-12-21T13:34:03.706Z,8.8
2018-12-21T13:34:53.734Z,8.8
2018-12-21T13:35:43.852Z,8.7
2018-12-21T13:36:33.574Z,8.6
2018-12-21T13:37:23.911Z,8.5
2018-12-21T13:38:13.966Z,8.4
2018-12-21T13:39:04.327Z,8.4
2018-12-21T13:39:53.801Z,8.3
2018-12-21T13:40:44.381Z,8.2
2018-12-21T13:41:33.923Z,8.1
2018-12-21T13:42:24.248Z,8
2018-12-21T13:43:14.031Z,7.9
2018-12-21T13:44:04.634Z,7.8
2018-12-21T13:44:54.129Z,7.8
2018-12-21T13:45:44.446Z,7.7
2018-12-21T13:46:34.255Z,7.6
2018-12-21T13:47:24.314Z,7.6
2018-12-21T13:48:14.628Z,7.5
2018-12-21T13:49:04.939Z,7.4
2018-12-21T13:49:54.596Z,7.4
2018-12-21T13:50:44.779Z,7.3
2018-12-21T13:51:34.038Z,7.2
2018-12-21T13:52:24.926Z,7.1
2018-12-21T13:53:14.697Z,7.1
2018-12-21T13:54:05.057Z,7
2018-12-21T13:54:54.808Z,6.9
2018-12-21T13:55:45.206Z,6.9
2018-12-21T13:56:34.651Z,6.8
2018-12-21T13:57:25.263Z,6.8
2018-12-21T13:58:15.123Z,6.8
2018-12-21T14:15:05.027Z,5.6
2018-12-21T14:15:54.777Z,5.6
2018-12-21T14:16:44.834Z,5.5
2018-12-21T14:17:34.620Z,5.4
2018-12-21T14:18:25.281Z,5.4
2018-12-21T14:19:15.274Z,5.4
2018-12-21T14:20:05.344Z,5.3
2018-12-21T14:20:55.374Z,5.3
2018-12-21T14:21:45.154Z,5.3
2018-12-21T14:22:35.496Z,5.2
2018-12-21T14:23:24.999Z,5.2
2018-12-21T14:24:15.334Z,5.1
2018-12-21T14:25:05.693Z,5.1
2018-12-21T14:25:55.712Z,5
2018-12-21T14:26:45.781Z,4.9
2018-12-21T14:27:35.821Z,4.9
2018-12-21T14:28:25.714Z,4.8
2018-12-21T14:29:16.248Z,4.8
2018-12-21T14:30:05.726Z,4.8
2018-12-21T14:30:56.058Z,4.7
2018-12-21T14:31:46.122Z,4.7
2018-12-21T14:32:36.015Z,4.6
2018-12-21T14:33:26.228Z,4.6
2018-12-21T14:34:16.283Z,4.5
2018-12-21T14:35:06.050Z,4.4
2018-12-21T14:35:55.861Z,4.4
2018-12-21T14:36:46.455Z,4.3
2018-12-21T14:37:36.512Z,4.3
2018-12-21T14:38:26.290Z,4.2
2018-12-21T14:39:16.344Z,4.1
2018-12-21T14:40:06.670Z,4.1
2018-12-21T14:40:56.452Z,4.1
2018-12-21T14:41:46.802Z,4
2018-12-21T14:42:36.841Z,3.9
2018-12-21T14:43:26.903Z,3.9
2018-12-21T14:44:16.954Z,3.8
2018-12-21T14:45:07.020Z,3.8
2018-12-21T14:45:56.792Z,3.7
2018-12-21T14:46:46.571Z,3.6
2018-12-21T14:47:36.922Z,3.6
2018-12-21T14:48:26.970Z,3.5
2018-12-21T14:49:17.013Z,3.4
2018-12-21T14:50:07.368Z,3.4
2018-12-21T14:50:57.127Z,3.3
2018-12-21T14:51:47.469Z,3.2
2018-12-21T14:52:37.260Z,3.1
2018-12-21T14:53:27.635Z,3.1
2018-12-21T14:54:17.627Z,3.1
2018-12-21T14:55:07.404Z,3
2018-12-21T14:55:57.193Z,2.9
2018-12-21T14:56:47.529Z,2.8
2018-12-21T14:57:37.132Z,2.8
2018-12-21T14:58:27.354Z,2.7
2018-12-21T14:59:19.312Z,2.6
2018-12-21T15:00:08.639Z,2.6
2018-12-21T15:00:58.999Z,2.5
2018-12-21T15:01:49.464Z,2.4
2018-12-21T15:02:37.903Z,2.4
2018-12-21T15:03:28.341Z,2.3
2018-12-21T15:04:18.708Z,2.3
2018-12-21T15:05:08.206Z,2.1
2018-12-21T15:05:57.861Z,2.1
2018-12-21T15:06:48.479Z,2.1
2018-12-21T15:07:38.266Z,1.9
2018-12-21T15:08:28.321Z,1.9
2018-12-21T15:09:18.906Z,1.8
2018-12-21T15:10:08.712Z,1.8
2018-12-21T15:10:58.472Z,1.7
2018-12-21T15:11:48.815Z,1.6
2018-12-21T15:12:38.869Z,1.6
2018-12-21T15:13:28.653Z,1.6
2018-12-21T15:14:18.703Z,1.4
2018-12-21T15:15:09.094Z,1.4
2018-12-21T15:15:58.931Z,1.4
2018-12-21T15:16:49.146Z,1.3
2018-12-21T15:17:39.219Z,1.3
2018-12-21T15:18:28.983Z,1.2
2018-12-21T15:19:19.308Z,1.1
2018-12-21T15:20:09.371Z,1.1
2018-12-21T15:20:59.203Z,1.1
2018-12-21T15:21:49.473Z,0.9
2018-12-21T15:22:39.253Z,0.9
2018-12-21T15:23:29.323Z,0.9
2018-12-21T15:24:19.122Z,0.8
2018-12-21T15:25:09.738Z,0.8
2018-12-21T15:25:59.763Z,0.7
2018-12-21T15:26:49.535Z,0.7
2018-12-21T15:27:39.867Z,0.6
2018-12-21T15:28:29.928Z,0.6
2018-12-21T15:29:19.720Z,0.4
2018-12-21T15:30:10.039Z,0.4
2018-12-21T15:30:59.543Z,0.4
2018-12-21T15:31:50.152Z,0.3
2018-12-21T15:32:39.951Z,0.3
2018-12-21T15:33:30.002Z,0.3
2018-12-21T15:34:20.040Z,0.2
2018-12-21T15:35:10.388Z,0.1
2018-12-21T15:35:59.873Z,0.1
2018-12-21T15:36:50.213Z,0.1
2018-12-21T15:37:40.269Z,0
2018-12-21T15:38:30.416Z,0
2018-12-21T15:39:20.675Z,-0.1
2018-12-21T15:40:10.444Z,-0.1
2018-12-21T15:41:00.777Z,-0.1
2018-12-21T15:41:50.822Z,-0.3
2018-12-21T15:42:40.047Z,-0.3
2018-12-21T15:43:30.932Z,-0.3
2018-12-21T15:44:20.729Z,-0.3
2018-12-21T15:45:10.777Z,-0.4
2018-12-21T15:46:00.954Z,-0.4
2018-12-21T15:46:50.886Z,-0.4
2018-12-21T15:47:41.242Z,-0.5
2018-12-21T15:48:31.272Z,-0.5
2018-12-21T15:49:21.332Z,-0.6
2018-12-21T15:50:11.127Z,-0.6
2018-12-21T15:51:01.249Z,-0.6
2018-12-21T15:51:51.431Z,-0.7
2018-12-21T15:52:41.086Z,-0.8
2018-12-21T15:53:30.579Z,-0.8
2018-12-21T15:54:21.199Z,-0.8
2018-12-21T15:55:11.454Z,-0.8
2018-12-21T15:56:01.761Z,-0.9
2018-12-21T15:56:51.844Z,-0.9
2018-12-21T15:59:21.461Z,-1
2018-12-21T16:00:11.798Z,-1
2018-12-21T16:01:02.433Z,-1.1
2018-12-21T16:01:52.174Z,-1.1
2018-12-21T16:02:41.971Z,-1.1
2018-12-21T16:03:32.266Z,-1.1
2018-12-21T16:04:21.798Z,-1.2
2018-12-21T16:05:12.405Z,-1.2
2018-12-21T16:06:02.461Z,-1.3
2018-12-21T16:06:52.236Z,-1.3
2018-12-21T16:07:42.827Z,-1.3
2018-12-21T16:08:32.634Z,-1.3
2018-12-21T16:09:22.415Z,-1.3
2018-12-21T16:10:12.735Z,-1.3
2018-12-21T16:11:02.810Z,-1.4
2018-12-21T16:11:52.846Z,-1.4
2018-12-21T16:12:42.913Z,-1.4
2018-12-21T16:13:32.686Z,-1.4
2018-12-21T16:14:23.020Z,-1.5
2018-12-21T16:15:12.622Z,-1.5
2018-12-21T16:16:02.853Z,-1.5
2018-12-21T16:16:53.165Z,-1.6
2018-12-21T16:17:43.261Z,-1.6
2018-12-21T16:18:33.028Z,-1.6
2018-12-21T16:19:22.812Z,-1.6
2018-12-21T16:20:13.015Z,-1.6
2018-12-21T16:21:03.475Z,-1.6
2018-12-21T16:21:52.710Z,-1.7
2018-12-21T16:22:44.510Z,-1.7